SAS2005 ESPA-ESSA
Flight info
| Callsign | SAS2005 |
|---|---|
| Flight time | 1h 4m |
| Altitude | 36000 |
| Route | VERAG DCT KETEL DCT BODRI DCT SIPRI N5 VACRA |
| Aircraft | B738/M-SDE2E3FGHIRWXY/LB1 |
Departure
| Time | 2026-04-15 08:17 |
|---|---|
| Airport | Luleå Airport (ESPA) |
Arrival
| Time | 2026-04-15 09:22 |
|---|---|
| Airport | Stockholm-Arlanda Airport (ESSA) |
| Time | Latitude | Longitude | Altitude | Speed | Heading |
|---|---|---|---|---|---|
| 2026-04-15 07:45 | 65.54875 | 22.12245 | 56 ft | 0 kts | 46° |
| 2026-04-15 08:06 | 65.54871 | 22.12234 | 56 ft | 2 kts | 48° |
| 2026-04-15 08:06 | 65.54858 | 22.12197 | 48 ft | 3 kts | 59° |
| 2026-04-15 08:06 | 65.54849 | 22.12154 | 48 ft | 3 kts | 76° |
| 2026-04-15 08:06 | 65.54847 | 22.12108 | 48 ft | 3 kts | 102° |
| 2026-04-15 08:07 | 65.54853 | 22.12070 | 49 ft | 2 kts | 133° |
| 2026-04-15 08:07 | 65.54855 | 22.12064 | 49 ft | 0 kts | 136° |
| 2026-04-15 08:12 | 65.54838 | 22.12104 | 48 ft | 7 kts | 137° |
| 2026-04-15 08:12 | 65.54791 | 22.12157 | 56 ft | 9 kts | 183° |
| 2026-04-15 08:12 | 65.54737 | 22.12086 | 55 ft | 9 kts | 194° |
| 2026-04-15 08:12 | 65.54676 | 22.12163 | 51 ft | 12 kts | 134° |
| 2026-04-15 08:13 | 65.54613 | 22.12318 | 53 ft | 13 kts | 134° |
| 2026-04-15 08:13 | 65.54569 | 22.12414 | 52 ft | 13 kts | 139° |
| 2026-04-15 08:13 | 65.54469 | 22.12625 | 50 ft | 15 kts | 139° |
| 2026-04-15 08:13 | 65.54419 | 22.12730 | 49 ft | 14 kts | 139° |
| 2026-04-15 08:14 | 65.54347 | 22.12884 | 48 ft | 13 kts | 136° |
| 2026-04-15 08:14 | 65.54282 | 22.13039 | 47 ft | 13 kts | 136° |
| 2026-04-15 08:14 | 65.54206 | 22.13212 | 45 ft | 16 kts | 136° |
| 2026-04-15 08:14 | 65.54124 | 22.13397 | 44 ft | 16 kts | 136° |
| 2026-04-15 08:15 | 65.54046 | 22.13572 | 42 ft | 16 kts | 138° |
| 2026-04-15 08:15 | 65.53941 | 22.13800 | 40 ft | 21 kts | 138° |
| 2026-04-15 08:15 | 65.53833 | 22.14037 | 38 ft | 21 kts | 136° |
| 2026-04-15 08:15 | 65.53722 | 22.14288 | 36 ft | 23 kts | 137° |
| 2026-04-15 08:16 | 65.53607 | 22.14545 | 34 ft | 22 kts | 137° |
| 2026-04-15 08:16 | 65.53494 | 22.14796 | 32 ft | 22 kts | 138° |
| 2026-04-15 08:16 | 65.53355 | 22.14831 | 30 ft | 21 kts | 210° |
| 2026-04-15 08:16 | 65.53322 | 22.14545 | 29 ft | 20 kts | 315° |
| 2026-04-15 08:17 | 65.53434 | 22.14301 | 32 ft | 33 kts | 317° |
| 2026-04-15 08:17 | 65.53842 | 22.13397 | 42 ft | 124 kts | 318° |
| 2026-04-15 08:17 | 65.54668 | 22.11593 | 198 ft | 188 kts | 319° |
| 2026-04-15 08:17 | 65.55628 | 22.09482 | 923 ft | 190 kts | 318° |
| 2026-04-15 08:18 | 65.56579 | 22.07265 | 1358 ft | 196 kts | 315° |
| 2026-04-15 08:18 | 65.57217 | 22.04366 | 2016 ft | 204 kts | 273° |
| 2026-04-15 08:18 | 65.56960 | 22.00946 | 2375 ft | 216 kts | 240° |
| 2026-04-15 08:18 | 65.55947 | 21.98304 | 2859 ft | 219 kts | 206° |
| 2026-04-15 08:19 | 65.54466 | 21.97512 | 3404 ft | 222 kts | 176° |
| 2026-04-15 08:19 | 65.53005 | 21.98377 | 3838 ft | 221 kts | 152° |
| 2026-04-15 08:19 | 65.51702 | 22.00104 | 4394 ft | 208 kts | 155° |
| 2026-04-15 08:19 | 65.50318 | 22.01166 | 4968 ft | 209 kts | 173° |
| 2026-04-15 08:20 | 65.48839 | 22.01231 | 5397 ft | 214 kts | 179° |
| 2026-04-15 08:20 | 65.47353 | 22.01156 | 5639 ft | 216 kts | 179° |
| 2026-04-15 08:20 | 65.45804 | 22.01043 | 5962 ft | 232 kts | 181° |
| 2026-04-15 08:20 | 65.44130 | 22.00883 | 6350 ft | 251 kts | 181° |
| 2026-04-15 08:21 | 65.42350 | 22.00721 | 7090 ft | 258 kts | 181° |
| 2026-04-15 08:21 | 65.40555 | 22.00567 | 7984 ft | 259 kts | 181° |
| 2026-04-15 08:21 | 65.38746 | 22.00423 | 8854 ft | 262 kts | 181° |
| 2026-04-15 08:21 | 65.36913 | 22.00286 | 9733 ft | 265 kts | 181° |
| 2026-04-15 08:22 | 65.35057 | 22.00156 | 10583 ft | 268 kts | 181° |
| 2026-04-15 08:22 | 65.33129 | 22.00023 | 10953 ft | 289 kts | 181° |
| 2026-04-15 08:22 | 65.31037 | 21.99882 | 11183 ft | 312 kts | 181° |
| 2026-04-15 08:22 | 65.28823 | 21.99736 | 11717 ft | 323 kts | 182° |
| 2026-04-15 08:23 | 65.26563 | 21.99590 | 12450 ft | 327 kts | 182° |
| 2026-04-15 08:23 | 65.24275 | 21.99443 | 13231 ft | 331 kts | 182° |
| 2026-04-15 08:23 | 65.21960 | 21.99295 | 13991 ft | 335 kts | 182° |
| 2026-04-15 08:23 | 65.19616 | 21.99145 | 14688 ft | 339 kts | 182° |
| 2026-04-15 08:24 | 65.17248 | 21.98995 | 15383 ft | 342 kts | 182° |
| 2026-04-15 08:24 | 65.14853 | 21.98843 | 16051 ft | 346 kts | 182° |
| 2026-04-15 08:24 | 65.12442 | 21.98498 | 16708 ft | 350 kts | 190° |
| 2026-04-15 08:24 | 65.10103 | 21.96811 | 17364 ft | 353 kts | 200° |
| 2026-04-15 08:25 | 65.07787 | 21.94745 | 18025 ft | 357 kts | 201° |
| 2026-04-15 08:25 | 65.05454 | 21.92618 | 18671 ft | 362 kts | 201° |
| 2026-04-15 08:25 | 65.03092 | 21.90472 | 19241 ft | 365 kts | 201° |
| 2026-04-15 08:25 | 65.00709 | 21.88329 | 19835 ft | 368 kts | 200° |
| 2026-04-15 08:26 | 64.98308 | 21.86193 | 20424 ft | 370 kts | 200° |
| 2026-04-15 08:26 | 64.95885 | 21.84057 | 20988 ft | 374 kts | 200° |
| 2026-04-15 08:26 | 64.93436 | 21.81911 | 21547 ft | 377 kts | 200° |
| 2026-04-15 08:26 | 64.90971 | 21.79762 | 22098 ft | 380 kts | 200° |
| 2026-04-15 08:27 | 64.88482 | 21.77599 | 22635 ft | 383 kts | 200° |
| 2026-04-15 08:27 | 64.85967 | 21.75421 | 23171 ft | 386 kts | 200° |
| 2026-04-15 08:27 | 64.83436 | 21.73232 | 23691 ft | 389 kts | 200° |
| 2026-04-15 08:27 | 64.80883 | 21.71030 | 24166 ft | 392 kts | 200° |
| 2026-04-15 08:28 | 64.78315 | 21.68820 | 24587 ft | 395 kts | 200° |
| 2026-04-15 08:28 | 64.75723 | 21.66593 | 24981 ft | 398 kts | 200° |
| 2026-04-15 08:28 | 64.73111 | 21.64353 | 25380 ft | 402 kts | 200° |
| 2026-04-15 08:28 | 64.70511 | 21.62128 | 25769 ft | 404 kts | 200° |
| 2026-04-15 08:29 | 64.67858 | 21.59863 | 26138 ft | 408 kts | 200° |
| 2026-04-15 08:29 | 64.65184 | 21.57584 | 26508 ft | 411 kts | 200° |
| 2026-04-15 08:29 | 64.62490 | 21.55293 | 26874 ft | 414 kts | 200° |
| 2026-04-15 08:29 | 64.59741 | 21.52960 | 27227 ft | 417 kts | 200° |
| 2026-04-15 08:30 | 64.57040 | 21.50673 | 27575 ft | 420 kts | 200° |
| 2026-04-15 08:30 | 64.54287 | 21.48347 | 27912 ft | 423 kts | 200° |
| 2026-04-15 08:30 | 64.51512 | 21.46007 | 28247 ft | 426 kts | 200° |
| 2026-04-15 08:30 | 64.48715 | 21.43654 | 28593 ft | 428 kts | 200° |
| 2026-04-15 08:31 | 64.45907 | 21.41297 | 28931 ft | 431 kts | 200° |
| 2026-04-15 08:31 | 64.43077 | 21.38926 | 29258 ft | 434 kts | 200° |
| 2026-04-15 08:31 | 64.40226 | 21.36543 | 29551 ft | 437 kts | 200° |
| 2026-04-15 08:31 | 64.37358 | 21.34151 | 29840 ft | 440 kts | 200° |
| 2026-04-15 08:32 | 64.34473 | 21.31750 | 30146 ft | 442 kts | 200° |
| 2026-04-15 08:32 | 64.31565 | 21.29335 | 30422 ft | 445 kts | 200° |
| 2026-04-15 08:32 | 64.28640 | 21.26912 | 30685 ft | 447 kts | 200° |
| 2026-04-15 08:32 | 64.25713 | 21.24491 | 31003 ft | 447 kts | 200° |
| 2026-04-15 08:33 | 64.22781 | 21.22072 | 31334 ft | 447 kts | 200° |
| 2026-04-15 08:33 | 64.19858 | 21.19668 | 31659 ft | 446 kts | 200° |
| 2026-04-15 08:33 | 64.16935 | 21.17269 | 31974 ft | 446 kts | 200° |
| 2026-04-15 08:33 | 64.14007 | 21.14874 | 32274 ft | 447 kts | 200° |
| 2026-04-15 08:34 | 64.11084 | 21.12487 | 32603 ft | 446 kts | 200° |
| 2026-04-15 08:34 | 64.08162 | 21.10105 | 32925 ft | 445 kts | 200° |
| 2026-04-15 08:34 | 64.05246 | 21.07734 | 33232 ft | 445 kts | 200° |
| 2026-04-15 08:34 | 64.02326 | 21.05363 | 33542 ft | 445 kts | 200° |
| 2026-04-15 08:35 | 63.99414 | 21.03004 | 33848 ft | 444 kts | 200° |
| 2026-04-15 08:35 | 63.96501 | 21.00649 | 34152 ft | 444 kts | 200° |
| 2026-04-15 08:35 | 63.93591 | 20.98302 | 34454 ft | 443 kts | 200° |
| 2026-04-15 08:35 | 63.90682 | 20.95961 | 34710 ft | 443 kts | 200° |
| 2026-04-15 08:36 | 63.87783 | 20.93633 | 34940 ft | 443 kts | 200° |
| 2026-04-15 08:36 | 63.84876 | 20.91304 | 35173 ft | 442 kts | 200° |
| 2026-04-15 08:36 | 63.81976 | 20.88985 | 35413 ft | 442 kts | 200° |
| 2026-04-15 08:36 | 63.79077 | 20.86673 | 35669 ft | 441 kts | 200° |
| 2026-04-15 08:37 | 63.76179 | 20.84365 | 35874 ft | 442 kts | 200° |
| 2026-04-15 08:37 | 63.73281 | 20.82063 | 36088 ft | 441 kts | 200° |
| 2026-04-15 08:37 | 63.70386 | 20.79769 | 36311 ft | 441 kts | 200° |
| 2026-04-15 08:37 | 63.67487 | 20.77476 | 36428 ft | 443 kts | 200° |
| 2026-04-15 08:38 | 63.64575 | 20.75177 | 36424 ft | 445 kts | 200° |
| 2026-04-15 08:38 | 63.58751 | 20.70597 | 36429 ft | 441 kts | 200° |
| 2026-04-15 08:39 | 63.52982 | 20.66079 | 36430 ft | 438 kts | 200° |
| 2026-04-15 08:39 | 63.47247 | 20.61607 | 36430 ft | 436 kts | 200° |
| 2026-04-15 08:40 | 63.41565 | 20.57195 | 36433 ft | 435 kts | 200° |
| 2026-04-15 08:40 | 63.35852 | 20.52776 | 36438 ft | 435 kts | 200° |
| 2026-04-15 08:41 | 63.30121 | 20.48363 | 36436 ft | 437 kts | 200° |
| 2026-04-15 08:41 | 63.24323 | 20.43917 | 36433 ft | 439 kts | 200° |
| 2026-04-15 08:42 | 63.18575 | 20.39529 | 36437 ft | 441 kts | 200° |
| 2026-04-15 08:42 | 63.12759 | 20.35107 | 36429 ft | 443 kts | 200° |
| 2026-04-15 08:43 | 63.06915 | 20.30682 | 36438 ft | 445 kts | 200° |
| 2026-04-15 08:43 | 63.01053 | 20.26263 | 36427 ft | 446 kts | 200° |
| 2026-04-15 08:44 | 62.95183 | 20.21857 | 36427 ft | 446 kts | 199° |
| 2026-04-15 08:44 | 62.89308 | 20.17466 | 36429 ft | 446 kts | 200° |
| 2026-04-15 08:45 | 62.83442 | 20.13099 | 36428 ft | 445 kts | 200° |
| 2026-04-15 08:45 | 62.77579 | 20.08754 | 36427 ft | 444 kts | 199° |
| 2026-04-15 08:46 | 62.71741 | 20.04444 | 36426 ft | 443 kts | 199° |
| 2026-04-15 08:46 | 62.65917 | 20.00163 | 36427 ft | 441 kts | 199° |
| 2026-04-15 08:47 | 62.60104 | 19.95908 | 36425 ft | 440 kts | 199° |
| 2026-04-15 08:47 | 62.54293 | 19.91670 | 36432 ft | 442 kts | 199° |
| 2026-04-15 08:48 | 62.48447 | 19.87424 | 36423 ft | 444 kts | 199° |
| 2026-04-15 08:48 | 62.42577 | 19.83179 | 36423 ft | 445 kts | 199° |
| 2026-04-15 08:49 | 62.36772 | 19.79003 | 36417 ft | 441 kts | 199° |
| 2026-04-15 08:49 | 62.30921 | 19.74812 | 36423 ft | 440 kts | 199° |
| 2026-04-15 08:50 | 62.25160 | 19.70700 | 36420 ft | 439 kts | 199° |
| 2026-04-15 08:50 | 62.19365 | 19.66579 | 36422 ft | 439 kts | 199° |
| 2026-04-15 08:51 | 62.13573 | 19.62476 | 36418 ft | 439 kts | 199° |
| 2026-04-15 08:51 | 62.07756 | 19.58373 | 36424 ft | 442 kts | 199° |
| 2026-04-15 08:52 | 62.01914 | 19.54268 | 36416 ft | 441 kts | 199° |
| 2026-04-15 08:52 | 61.96138 | 19.50227 | 36406 ft | 434 kts | 199° |
| 2026-04-15 08:53 | 61.90408 | 19.46233 | 36094 ft | 435 kts | 199° |
| 2026-04-15 08:53 | 61.87553 | 19.44249 | 35787 ft | 429 kts | 199° |
| 2026-04-15 08:53 | 61.84731 | 19.42293 | 35387 ft | 425 kts | 199° |
| 2026-04-15 08:53 | 61.81927 | 19.40352 | 35001 ft | 422 kts | 199° |
| 2026-04-15 08:54 | 61.79149 | 19.38433 | 34617 ft | 419 kts | 199° |
| 2026-04-15 08:54 | 61.76387 | 19.36529 | 34186 ft | 416 kts | 199° |
| 2026-04-15 08:54 | 61.73646 | 19.34641 | 33737 ft | 413 kts | 199° |
| 2026-04-15 08:54 | 61.70925 | 19.32773 | 33318 ft | 410 kts | 199° |
| 2026-04-15 08:55 | 61.68226 | 19.30922 | 32912 ft | 406 kts | 199° |
| 2026-04-15 08:55 | 61.65547 | 19.29088 | 32523 ft | 403 kts | 199° |
| 2026-04-15 08:55 | 61.62893 | 19.27275 | 32144 ft | 400 kts | 199° |
| 2026-04-15 08:55 | 61.60259 | 19.25478 | 31770 ft | 396 kts | 199° |
| 2026-04-15 08:56 | 61.57647 | 19.23700 | 31397 ft | 393 kts | 199° |
| 2026-04-15 08:56 | 61.55048 | 19.21934 | 31027 ft | 391 kts | 199° |
| 2026-04-15 08:56 | 61.52474 | 19.20187 | 30668 ft | 388 kts | 199° |
| 2026-04-15 08:56 | 61.49911 | 19.18451 | 30265 ft | 385 kts | 199° |
| 2026-04-15 08:57 | 61.47371 | 19.16733 | 29844 ft | 382 kts | 199° |
| 2026-04-15 08:57 | 61.44855 | 19.15036 | 29474 ft | 378 kts | 199° |
| 2026-04-15 08:57 | 61.42363 | 19.13357 | 29096 ft | 374 kts | 199° |
| 2026-04-15 08:57 | 61.39900 | 19.11700 | 28713 ft | 371 kts | 199° |
| 2026-04-15 08:58 | 61.37458 | 19.10060 | 28350 ft | 367 kts | 199° |
| 2026-04-15 08:58 | 61.32642 | 19.06833 | 27613 ft | 361 kts | 199° |
| 2026-04-15 08:58 | 61.30262 | 19.05242 | 27249 ft | 358 kts | 199° |
| 2026-04-15 08:59 | 61.27897 | 19.03664 | 26888 ft | 355 kts | 199° |
| 2026-04-15 08:59 | 61.25554 | 19.02104 | 26532 ft | 352 kts | 199° |
| 2026-04-15 08:59 | 61.23257 | 19.00575 | 26185 ft | 350 kts | 199° |
| 2026-04-15 08:59 | 61.20947 | 18.99041 | 25837 ft | 348 kts | 199° |
| 2026-04-15 09:00 | 61.18619 | 18.97497 | 25483 ft | 346 kts | 199° |
| 2026-04-15 09:00 | 61.16366 | 18.96005 | 25150 ft | 344 kts | 199° |
| 2026-04-15 09:00 | 61.14094 | 18.94503 | 24803 ft | 342 kts | 199° |
| 2026-04-15 09:00 | 61.11835 | 18.93012 | 24462 ft | 340 kts | 199° |
| 2026-04-15 09:01 | 61.09583 | 18.91527 | 24118 ft | 339 kts | 199° |
| 2026-04-15 09:01 | 61.07341 | 18.90051 | 23732 ft | 337 kts | 199° |
| 2026-04-15 09:01 | 61.05111 | 18.88585 | 23338 ft | 336 kts | 199° |
| 2026-04-15 09:01 | 61.02894 | 18.87129 | 22989 ft | 333 kts | 198° |
| 2026-04-15 09:02 | 61.00696 | 18.85689 | 22647 ft | 330 kts | 198° |
| 2026-04-15 09:02 | 60.98522 | 18.84266 | 22320 ft | 327 kts | 198° |
| 2026-04-15 09:02 | 60.96363 | 18.82854 | 21984 ft | 324 kts | 198° |
| 2026-04-15 09:02 | 60.94226 | 18.81459 | 21654 ft | 321 kts | 197° |
| 2026-04-15 09:03 | 60.92788 | 18.80522 | 21431 ft | 320 kts | 197° |
| 2026-04-15 09:03 | 60.90677 | 18.79147 | 21102 ft | 317 kts | 197° |
| 2026-04-15 09:03 | 60.88576 | 18.77780 | 20775 ft | 315 kts | 197° |
| 2026-04-15 09:03 | 60.86491 | 18.76428 | 20457 ft | 313 kts | 196° |
| 2026-04-15 09:04 | 60.84417 | 18.75083 | 20141 ft | 311 kts | 196° |
| 2026-04-15 09:04 | 60.82364 | 18.73756 | 19842 ft | 308 kts | 196° |
| 2026-04-15 09:04 | 60.80325 | 18.72441 | 19545 ft | 306 kts | 195° |
| 2026-04-15 09:04 | 60.78295 | 18.71134 | 19240 ft | 305 kts | 195° |
| 2026-04-15 09:05 | 60.76280 | 18.69838 | 18934 ft | 303 kts | 195° |
| 2026-04-15 09:05 | 60.74271 | 18.68547 | 18624 ft | 302 kts | 195° |
| 2026-04-15 09:05 | 60.72275 | 18.67266 | 18261 ft | 300 kts | 195° |
| 2026-04-15 09:05 | 60.70288 | 18.65993 | 17930 ft | 298 kts | 195° |
| 2026-04-15 09:06 | 60.68320 | 18.64733 | 17624 ft | 295 kts | 195° |
| 2026-04-15 09:06 | 60.66366 | 18.63482 | 17312 ft | 293 kts | 195° |
| 2026-04-15 09:06 | 60.64452 | 18.62260 | 17005 ft | 291 kts | 194° |
| 2026-04-15 09:06 | 60.62528 | 18.61033 | 16703 ft | 289 kts | 194° |
| 2026-04-15 09:07 | 60.60592 | 18.59800 | 16396 ft | 287 kts | 194° |
| 2026-04-15 09:07 | 60.58718 | 18.58607 | 16100 ft | 287 kts | 194° |
| 2026-04-15 09:07 | 60.56805 | 18.57393 | 15806 ft | 289 kts | 194° |
| 2026-04-15 09:07 | 60.54870 | 18.56167 | 15505 ft | 294 kts | 194° |
| 2026-04-15 09:08 | 60.52894 | 18.54916 | 15199 ft | 300 kts | 194° |
| 2026-04-15 09:08 | 60.50900 | 18.53654 | 14876 ft | 300 kts | 194° |
| 2026-04-15 09:08 | 60.48915 | 18.52397 | 14563 ft | 298 kts | 194° |
| 2026-04-15 09:08 | 60.46945 | 18.51151 | 14243 ft | 296 kts | 194° |
| 2026-04-15 09:09 | 60.44984 | 18.49914 | 13900 ft | 294 kts | 194° |
| 2026-04-15 09:09 | 60.43037 | 18.48686 | 13561 ft | 292 kts | 194° |
| 2026-04-15 09:09 | 60.41105 | 18.47470 | 13251 ft | 289 kts | 194° |
| 2026-04-15 09:09 | 60.39194 | 18.46269 | 12955 ft | 287 kts | 194° |
| 2026-04-15 09:10 | 60.37294 | 18.45075 | 12635 ft | 285 kts | 194° |
| 2026-04-15 09:10 | 60.35408 | 18.43894 | 12338 ft | 283 kts | 194° |
| 2026-04-15 09:10 | 60.33533 | 18.42719 | 12036 ft | 281 kts | 194° |
| 2026-04-15 09:10 | 60.31670 | 18.41552 | 11745 ft | 280 kts | 194° |
| 2026-04-15 09:11 | 60.29815 | 18.40395 | 11431 ft | 279 kts | 194° |
| 2026-04-15 09:11 | 60.27969 | 18.39267 | 11153 ft | 276 kts | 192° |
| 2026-04-15 09:11 | 60.26081 | 18.38684 | 10844 ft | 273 kts | 182° |
| 2026-04-15 09:11 | 60.24190 | 18.38440 | 10577 ft | 271 kts | 181° |
| 2026-04-15 09:12 | 60.22335 | 18.38245 | 10466 ft | 263 kts | 181° |
| 2026-04-15 09:12 | 60.20532 | 18.38039 | 10319 ft | 257 kts | 181° |
| 2026-04-15 09:12 | 60.18749 | 18.37817 | 10017 ft | 256 kts | 182° |
| 2026-04-15 09:12 | 60.16975 | 18.37578 | 9745 ft | 255 kts | 181° |
| 2026-04-15 09:13 | 60.15213 | 18.37337 | 9473 ft | 253 kts | 182° |
| 2026-04-15 09:13 | 60.13462 | 18.37090 | 9199 ft | 251 kts | 181° |
| 2026-04-15 09:13 | 60.11737 | 18.36611 | 8926 ft | 252 kts | 198° |
| 2026-04-15 09:13 | 60.10206 | 18.34909 | 8730 ft | 252 kts | 211° |
| 2026-04-15 09:14 | 60.08770 | 18.32903 | 8531 ft | 249 kts | 212° |
| 2026-04-15 09:14 | 60.07371 | 18.30898 | 8322 ft | 249 kts | 212° |
| 2026-04-15 09:14 | 60.05954 | 18.28857 | 8047 ft | 251 kts | 212° |
| 2026-04-15 09:14 | 60.04536 | 18.26810 | 7759 ft | 252 kts | 212° |
| 2026-04-15 09:15 | 60.03118 | 18.24757 | 7478 ft | 252 kts | 212° |
| 2026-04-15 09:15 | 60.01695 | 18.22692 | 7143 ft | 255 kts | 212° |
| 2026-04-15 09:15 | 60.00287 | 18.20644 | 6892 ft | 253 kts | 213° |
| 2026-04-15 09:15 | 59.98869 | 18.18582 | 6653 ft | 251 kts | 212° |
| 2026-04-15 09:16 | 59.97468 | 18.16536 | 6437 ft | 249 kts | 213° |
| 2026-04-15 09:16 | 59.96071 | 18.14494 | 6187 ft | 248 kts | 212° |
| 2026-04-15 09:16 | 59.94655 | 18.12554 | 5954 ft | 246 kts | 208° |
| 2026-04-15 09:16 | 59.93205 | 18.10752 | 5700 ft | 245 kts | 208° |
| 2026-04-15 09:17 | 59.91753 | 18.08960 | 5415 ft | 246 kts | 207° |
| 2026-04-15 09:17 | 59.90292 | 18.07164 | 5125 ft | 246 kts | 207° |
| 2026-04-15 09:17 | 59.88852 | 18.05380 | 4732 ft | 241 kts | 207° |
| 2026-04-15 09:17 | 59.87444 | 18.03632 | 4297 ft | 236 kts | 207° |
| 2026-04-15 09:18 | 59.86071 | 18.01913 | 3851 ft | 231 kts | 207° |
| 2026-04-15 09:18 | 59.84726 | 18.00219 | 3442 ft | 228 kts | 207° |
| 2026-04-15 09:18 | 59.83370 | 17.98750 | 3124 ft | 214 kts | 193° |
| 2026-04-15 09:18 | 59.81974 | 17.98010 | 2820 ft | 204 kts | 186° |
| 2026-04-15 09:19 | 59.80597 | 17.97419 | 2576 ft | 201 kts | 186° |
| 2026-04-15 09:19 | 59.79278 | 17.96907 | 2499 ft | 185 kts | 183° |
| 2026-04-15 09:19 | 59.78033 | 17.96505 | 2496 ft | 181 kts | 184° |
| 2026-04-15 09:19 | 59.76767 | 17.96050 | 2220 ft | 185 kts | 184° |
| 2026-04-15 09:20 | 59.75518 | 17.95597 | 1952 ft | 181 kts | 184° |
| 2026-04-15 09:20 | 59.74283 | 17.95146 | 1707 ft | 181 kts | 185° |
| 2026-04-15 09:20 | 59.73056 | 17.94703 | 1474 ft | 178 kts | 185° |
| 2026-04-15 09:20 | 59.71894 | 17.94279 | 1226 ft | 169 kts | 185° |
| 2026-04-15 09:21 | 59.70783 | 17.93879 | 1002 ft | 156 kts | 186° |
| 2026-04-15 09:21 | 59.69735 | 17.93496 | 835 ft | 151 kts | 184° |
| 2026-04-15 09:21 | 59.68677 | 17.93155 | 646 ft | 157 kts | 186° |
| 2026-04-15 09:21 | 59.67617 | 17.92744 | 381 ft | 152 kts | 186° |
| 2026-04-15 09:22 | 59.66597 | 17.92379 | 192 ft | 147 kts | 186° |
| 2026-04-15 09:22 | 59.65685 | 17.92042 | 143 ft | 119 kts | 188° |
| 2026-04-15 09:22 | 59.65218 | 17.91890 | 143 ft | 29 kts | 174° |
| 2026-04-15 09:22 | 59.65034 | 17.92014 | 138 ft | 18 kts | 160° |
| 2026-04-15 09:23 | 59.64939 | 17.92109 | 137 ft | 8 kts | 106° |
| 2026-04-15 09:23 | 59.64961 | 17.92210 | 137 ft | 8 kts | 60° |
| 2026-04-15 09:23 | 59.64992 | 17.92299 | 137 ft | 8 kts | 41° |
| 2026-04-15 09:23 | 59.65043 | 17.92326 | 137 ft | 8 kts | 5° |
| 2026-04-15 09:24 | 59.65104 | 17.92335 | 137 ft | 10 kts | 347° |
| 2026-04-15 09:24 | 59.65160 | 17.92244 | 137 ft | 11 kts | 320° |
| 2026-04-15 09:24 | 59.65230 | 17.92223 | 137 ft | 10 kts | 7° |
| 2026-04-15 09:24 | 59.65299 | 17.92254 | 137 ft | 10 kts | 17° |
| 2026-04-15 09:25 | 59.65366 | 17.92283 | 137 ft | 10 kts | 8° |
| 2026-04-15 09:25 | 59.65442 | 17.92306 | 137 ft | 12 kts | 9° |
| 2026-04-15 09:25 | 59.65459 | 17.92333 | 137 ft | 6 kts | 71° |
| 2026-04-15 09:25 | 59.65485 | 17.92459 | 137 ft | 11 kts | 54° |
| 2026-04-15 09:26 | 59.65528 | 17.92614 | 137 ft | 14 kts | 75° |
| 2026-04-15 09:26 | 59.65555 | 17.92812 | 137 ft | 15 kts | 76° |
| 2026-04-15 09:26 | 59.65581 | 17.93015 | 137 ft | 16 kts | 76° |
| 2026-04-15 09:26 | 59.65614 | 17.93280 | 137 ft | 21 kts | 76° |
| 2026-04-15 09:27 | 59.65649 | 17.93549 | 137 ft | 20 kts | 76° |
| 2026-04-15 09:27 | 59.65663 | 17.93807 | 137 ft | 18 kts | 121° |
| 2026-04-15 09:27 | 59.65551 | 17.93880 | 137 ft | 17 kts | 170° |
| 2026-04-15 09:27 | 59.65439 | 17.93936 | 137 ft | 16 kts | 165° |
| 2026-04-15 09:28 | 59.65368 | 17.93961 | 137 ft | 7 kts | 192° |
| 2026-04-15 09:28 | 59.65366 | 17.93952 | 137 ft | 2 kts | 240° |
| 2026-04-15 09:28 | 59.65354 | 17.93880 | 137 ft | 6 kts | 251° |
| 2026-04-15 09:28 | 59.65345 | 17.93808 | 137 ft | 0 kts | 256° |